Terminal Aerodrome Forecast
Issued by NWS

Home | Current Version | Previous Version | Text Only | Print | Product List | Glossary On
Versions: 1 2 3 4 5 6 7 8 9 10 11 12
799
FTUS46 KSEW 222330
TAFOLM
TAF
KOLM 222330Z 2300/2324 23008KT P6SM SKC
     FM230600 20006KT P6SM SCT250
     FM231100 21004KT 3SM BR OVC007
     FM232000 23006KT P6SM SCT035 BKN250=

USA.gov is the U.S. government's official web portal to all federal, state and local government web resources and services.